Observation data for Northwest Lubbock on 08/20/2019      Previous  Date       Current Mesonet Observations  Soil Data  Daily Summary Page  Observations in Plain Language
KLBW 200500Z 15009KT 30/13 A3007 RMK A01 T02950126  RH  037%=      5-min Rain = 0
KLBW 200505Z 14009KT 29/13 A3007 RMK A01 T02930127  RH  037%=      5-min Rain = 0
KLBW 200510Z 15008KT 29/13 A3007 RMK A01 T02930127  RH  037%=      5-min Rain = 0
KLBW 200515Z 15009KT 29/13 A3007 RMK A01 T02930127  RH  038%=      5-min Rain = 0
KLBW 200520Z 15010G15KT 29/13 A3007 RMK A01 T02930128  RH  038%=      5-min Rain = 0
KLBW 200525Z 15010KT 29/13 A3008 RMK A01 T02930128  RH  038%=      5-min Rain = 0
KLBW 200530Z 15008G14KT 29/13 A3008 RMK A01 T02910129  RH  038%=      5-min Rain = 0
KLBW 200535Z 15010KT 29/13 A3008 RMK A01 T02910130  RH  039%=      5-min Rain = 0
KLBW 200540Z 15010G15KT 29/13 A3008 RMK A01 T02910130  RH  039%=      5-min Rain = 0
KLBW 200545Z 15008G14KT 29/13 A3008 RMK A01 T02900131  RH  039%=      5-min Rain = 0
KLBW 200550Z 15009G14KT 29/13 A3008 RMK A01 T02890132  RH  040%=      5-min Rain = 0
KLBW 200555Z 15009G14KT 29/13 A3008 RMK A01 T02880133  RH  040%=      5-min Rain = 0
KLBW 200600Z 15009KT 29/13 A3008 RMK A01 T02880133  RH  040%=      5-min Rain = 0
KLBW 200605Z 15008G13KT 29/13 A3009 RMK A01 T02870133  RH  040%=      5-min Rain = 0
KLBW 200610Z 15008KT 29/13 A3009 RMK A01 T02850133  RH  041%=      5-min Rain = 0
KLBW 200615Z 15008KT 28/13 A3008 RMK A01 T02840134  RH  041%=      5-min Rain = 0
KLBW 200620Z 14008KT 28/13 A3008 RMK A01 T02820134  RH  042%=      5-min Rain = 0
KLBW 200625Z 14008KT 28/14 A3008 RMK A01 T02820135  RH  042%=      5-min Rain = 0
KLBW 200630Z 15007KT 28/14 A3008 RMK A01 T02800135  RH  043%=      5-min Rain = 0
KLBW 200635Z 14007KT 28/14 A3008 RMK A01 T02790135  RH  043%=      5-min Rain = 0
KLBW 200640Z 14008KT 28/14 A3008 RMK A01 T02790137  RH  043%=      5-min Rain = 0
KLBW 200645Z 14007KT 28/14 A3008 RMK A01 T02760139  RH  045%=      5-min Rain = 0
KLBW 200650Z 14006KT 27/14 A3008 RMK A01 T02720138  RH  046%=      5-min Rain = 0
KLBW 200655Z 14006KT 27/14 A3008 RMK A01 T02730138  RH  045%=      5-min Rain = 0
KLBW 200700Z 14006KT 27/14 A3008 RMK A01 T02710140  RH  046%=      5-min Rain = 0
KLBW 200705Z 14006KT 27/14 A3008 RMK A01 T02690139  RH  047%=      5-min Rain = 0
KLBW 200710Z 14006KT 27/14 A3008 RMK A01 T02680139  RH  047%=      5-min Rain = 0
KLBW 200715Z 14006KT 27/14 A3008 RMK A01 T02660140  RH  048%=      5-min Rain = 0
KLBW 200720Z 15007KT 27/14 A3008 RMK A01 T02670139  RH  047%=      5-min Rain = 0
KLBW 200725Z 15006KT 27/14 A3008 RMK A01 T02690138  RH  046%=      5-min Rain = 0
KLBW 200730Z 15005KT 27/14 A3008 RMK A01 T02680138  RH  046%=      5-min Rain = 0
KLBW 200735Z 15005KT 27/14 A3008 RMK A01 T02670138  RH  047%=      5-min Rain = 0
KLBW 200740Z 15005KT 27/14 A3009 RMK A01 T02670138  RH  047%=      5-min Rain = 0
KLBW 200745Z 15005KT 27/14 A3009 RMK A01 T02660138  RH  047%=      5-min Rain = 0
KLBW 200750Z 15005KT 27/14 A3009 RMK A01 T02660139  RH  048%=      5-min Rain = 0
KLBW 200755Z 14006KT 26/14 A3009 RMK A01 T02640139  RH  048%=      5-min Rain = 0
KLBW 200800Z 14006KT 26/14 A3009 RMK A01 T02630139  RH  048%=      5-min Rain = 0
KLBW 200805Z 15005KT 26/14 A3008 RMK A01 T02630139  RH  049%=      5-min Rain = 0
KLBW 200810Z 15005KT 26/14 A3009 RMK A01 T02630140  RH  049%=      5-min Rain = 0
KLBW 200815Z 15005KT 26/14 A3008 RMK A01 T02630140  RH  049%=      5-min Rain = 0
KLBW 200820Z 15006KT 26/14 A3008 RMK A01 T02610140  RH  049%=      5-min Rain = 0
KLBW 200825Z 15006KT 26/14 A3008 RMK A01 T02610140  RH  049%=      5-min Rain = 0
KLBW 200830Z 15006KT 26/14 A3008 RMK A01 T02620140  RH  049%=      5-min Rain = 0
KLBW 200835Z 16006KT 26/14 A3008 RMK A01 T02620141  RH  049%=      5-min Rain = 0
KLBW 200840Z 16007KT 26/14 A3008 RMK A01 T02610141  RH  049%=      5-min Rain = 0
KLBW 200845Z 16007KT 26/14 A3008 RMK A01 T02620140  RH  049%=      5-min Rain = 0
KLBW 200850Z 16007KT 26/14 A3009 RMK A01 T02610140  RH  049%=      5-min Rain = 0
KLBW 200855Z 17007KT 26/14 A3008 RMK A01 T02610140  RH  049%=      5-min Rain = 0
KLBW 200900Z 17007KT 26/14 A3008 RMK A01 T02610140  RH  049%=      5-min Rain = 0
KLBW 200905Z 16008KT 26/14 A3009 RMK A01 T02610140  RH  049%=      5-min Rain = 0
KLBW 200910Z 17008KT 26/14 A3009 RMK A01 T02620139  RH  049%=      5-min Rain = 0
KLBW 200915Z 16008KT 26/14 A3009 RMK A01 T02640138  RH  048%=      5-min Rain = 0
KLBW 200920Z 16009KT 27/14 A3009 RMK A01 T02650138  RH  047%=      5-min Rain = 0
KLBW 200925Z 17009KT 27/14 A3009 RMK A01 T02650137  RH  047%=      5-min Rain = 0
KLBW 200930Z 17009KT 27/14 A3009 RMK A01 T02650136  RH  047%=      5-min Rain = 0
KLBW 200935Z 18009KT 26/14 A3009 RMK A01 T02640135  RH  047%=      5-min Rain = 0
KLBW 200940Z 18008KT 26/14 A3009 RMK A01 T02630135  RH  047%=      5-min Rain = 0
KLBW 200945Z 18008G13KT 26/13 A3008 RMK A01 T02620134  RH  047%=      5-min Rain = 0
KLBW 200950Z 18008KT 26/13 A3008 RMK A01 T02610134  RH  047%=      5-min Rain = 0
KLBW 200955Z 18009G15KT 26/13 A3008 RMK A01 T02630133  RH  046%=      5-min Rain = 0
KLBW 201000Z 18009KT 26/13 A3008 RMK A01 T02620133  RH  047%=      5-min Rain = 0
KLBW 201005Z 19010G16KT 26/13 A3008 RMK A01 T02640132  RH  046%=      5-min Rain = 0
KLBW 201010Z 19010KT 26/13 A3009 RMK A01 T02630132  RH  046%=      5-min Rain = 0
KLBW 201015Z 19010KT 26/13 A3009 RMK A01 T02640132  RH  046%=      5-min Rain = 0
KLBW 201020Z 19010G16KT 26/13 A3008 RMK A01 T02630133  RH  046%=      5-min Rain = 0
KLBW 201025Z 19010G15KT 26/13 A3008 RMK A01 T02640133  RH  046%=      5-min Rain = 0
KLBW 201030Z 19011G16KT 26/13 A3009 RMK A01 T02620133  RH  047%=      5-min Rain = 0
KLBW 201035Z 19010G15KT 26/13 A3009 RMK A01 T02630133  RH  046%=      5-min Rain = 0
KLBW 201040Z 19010G15KT 26/13 A3009 RMK A01 T02620133  RH  047%=      5-min Rain = 0
KLBW 201045Z 19009KT 26/13 A3009 RMK A01 T02610133  RH  047%=      5-min Rain = 0
KLBW 201050Z 19010KT 26/13 A3009 RMK A01 T02610133  RH  047%=      5-min Rain = 0
KLBW 201055Z 19009KT 26/13 A3009 RMK A01 T02610133  RH  047%=      5-min Rain = 0
KLBW 201100Z 19009KT 26/13 A3009 RMK A01 T02600133  RH  047%=      5-min Rain = 0
KLBW 201105Z 19008KT 26/13 A301 RMK A01 T02580133  RH  048%=      5-min Rain = 0
KLBW 201110Z 20008G13KT 26/13 A301 RMK A01 T02570133  RH  048%=      5-min Rain = 0
KLBW 201115Z 20007KT 26/13 A301 RMK A01 T02550133  RH  048%=      5-min Rain = 0
KLBW 201120Z 20008KT 26/13 A301 RMK A01 T02550132  RH  048%=      5-min Rain = 0
KLBW 201125Z 19008G13KT 26/13 A301 RMK A01 T02550133  RH  049%=      5-min Rain = 0
KLBW 201130Z 19008KT 25/13 A301 RMK A01 T02540133  RH  049%=      5-min Rain = 0
KLBW 201135Z 19007KT 25/13 A301 RMK A01 T02520133  RH  050%=      5-min Rain = 0
KLBW 201140Z 20007KT 25/13 A301 RMK A01 T02500133  RH  050%=      5-min Rain = 0
KLBW 201145Z 20007G12KT 25/13 A301 RMK A01 T02490134  RH  051%=      5-min Rain = 0
KLBW 201150Z 20007KT 25/13 A3011 RMK A01 T02480134  RH  051%=      5-min Rain = 0
KLBW 201155Z 21005KT 25/13 A3011 RMK A01 T02460134  RH  052%=      5-min Rain = 0
KLBW 201200Z 21006KT 24/13 A3011 RMK A01 T02420134  RH  053%=      5-min Rain = 0
KLBW 201205Z 21006KT 24/14 A3011 RMK A01 T02440135  RH  053%=      5-min Rain = 0
KLBW 201210Z 22005KT 24/13 A3011 RMK A01 T02410134  RH  053%=      5-min Rain = 0
KLBW 201215Z 21004KT 24/13 A3011 RMK A01 T02380134  RH  054%=      5-min Rain = 0
KLBW 201220Z 21005KT 24/14 A3011 RMK A01 T02360135  RH  055%=      5-min Rain = 0
KLBW 201225Z 20005KT 24/14 A3012 RMK A01 T02350135  RH  056%=      5-min Rain = 0
KLBW 201230Z 20004KT 24/14 A3012 RMK A01 T02350136  RH  056%=      5-min Rain = 0
KLBW 201235Z 20004KT 24/14 A3012 RMK A01 T02360136  RH  056%=      5-min Rain = 0
KLBW 201240Z 21004KT 24/14 A3012 RMK A01 T02370137  RH  056%=      5-min Rain = 0
KLBW 201245Z 23004KT 24/14 A3013 RMK A01 T02370137  RH  056%=      5-min Rain = 0
KLBW 201250Z 24004KT 24/14 A3013 RMK A01 T02380138  RH  055%=      5-min Rain = 0
KLBW 201255Z 23004KT 24/14 A3013 RMK A01 T02410138  RH  055%=      5-min Rain = 0
KLBW 201300Z 24004KT 24/14 A3013 RMK A01 T02420138  RH  054%=      5-min Rain = 0
KLBW 201305Z 24003KT 25/14 A3013 RMK A01 T02450139  RH  054%=      5-min Rain = 0
KLBW 201310Z 24003KT 25/14 A3013 RMK A01 T02470139  RH  053%=      5-min Rain = 0
KLBW 201315Z 24003KT 25/14 A3013 RMK A01 T02500139  RH  052%=      5-min Rain = 0
KLBW 201320Z 24003KT 25/14 A3013 RMK A01 T02510139  RH  052%=      5-min Rain = 0
KLBW 201325Z 23004KT 25/14 A3013 RMK A01 T02530139  RH  051%=      5-min Rain = 0
KLBW 201330Z 22005KT 26/14 A3013 RMK A01 T02550138  RH  051%=      5-min Rain = 0
KLBW 201335Z 22006KT 26/14 A3013 RMK A01 T02570139  RH  050%=      5-min Rain = 0
KLBW 201340Z 21006KT 26/14 A3014 RMK A01 T02590140  RH  050%=      5-min Rain = 0
KLBW 201345Z 20006G11KT 26/14 A3014 RMK A01 T02630142  RH  049%=      5-min Rain = 0
KLBW 201350Z 20007KT 27/14 A3014 RMK A01 T02650142  RH  049%=      5-min Rain = 0
KLBW 201355Z 21008KT 27/14 A3014 RMK A01 T02660143  RH  049%=      5-min Rain = 0
KLBW 201400Z 21008KT 27/14 A3014 RMK A01 T02680144  RH  049%=      5-min Rain = 0
KLBW 201405Z 20007KT 27/15 A3014 RMK A01 T02700145  RH  048%=      5-min Rain = 0
KLBW 201410Z 21009KT 27/15 A3014 RMK A01 T02720146  RH  048%=      5-min Rain = 0
KLBW 201415Z 20007KT 27/15 A3014 RMK A01 T02730147  RH  048%=      5-min Rain = 0
KLBW 201420Z 20007KT 28/15 A3014 RMK A01 T02780148  RH  047%=      5-min Rain = 0
KLBW 201425Z 22008KT 28/15 A3014 RMK A01 T02800149  RH  047%=      5-min Rain = 0
KLBW 201430Z 22009KT 28/15 A3014 RMK A01 T02780150  RH  048%=      5-min Rain = 0
KLBW 201435Z 21007KT 28/15 A3014 RMK A01 T02810151  RH  047%=      5-min Rain = 0
KLBW 201440Z 20008G14KT 28/15 A3014 RMK A01 T02840153  RH  047%=      5-min Rain = 0
KLBW 201445Z 21011G16KT 28/16 A3014 RMK A01 T02840156  RH  048%=      5-min Rain = 0
KLBW 201450Z 21011KT 29/16 A3014 RMK A01 T02860157  RH  048%=      5-min Rain = 0
KLBW 201455Z 21012G18KT 29/16 A3014 RMK A01 T02870157  RH  047%=      5-min Rain = 0
KLBW 201500Z 22010G16KT 29/16 A3014 RMK A01 T02880158  RH  048%=      5-min Rain = 0
KLBW 201505Z 21011KT 29/16 A3014 RMK A01 T02910158  RH  047%=      5-min Rain = 0
KLBW 201510Z 22012KT 29/16 A3014 RMK A01 T02900157  RH  047%=      5-min Rain = 0
KLBW 201515Z 21012G17KT 29/16 A3013 RMK A01 T02940157  RH  045%=      5-min Rain = 0
KLBW 201520Z 20011G16KT 30/16 A3014 RMK A01 T02960156  RH  045%=      5-min Rain = 0
KLBW 201525Z 21009KT 30/16 A3014 RMK A01 T03010157  RH  044%=      5-min Rain = 0
KLBW 201530Z 23011KT 30/16 A3014 RMK A01 T03040156  RH  043%=      5-min Rain = 0
KLBW 201535Z 22011KT 30/16 A3014 RMK A01 T03020156  RH  043%=      5-min Rain = 0
KLBW 201540Z 22011KT 31/16 A3014 RMK A01 T03060156  RH  042%=      5-min Rain = 0
KLBW 201545Z 22011G16KT 31/16 A3014 RMK A01 T03080155  RH  042%=      5-min Rain = 0
KLBW 201550Z 23012KT 31/16 A3014 RMK A01 T03060155  RH  042%=      5-min Rain = 0
KLBW 201555Z 21010G17KT 31/16 A3014 RMK A01 T03110155  RH  041%=      5-min Rain = 0
KLBW 201600Z 20009G14KT 32/16 A3014 RMK A01 T03150156  RH  040%=      5-min Rain = 0
KLBW 201605Z 20009G14KT 32/15 A3014 RMK A01 T03160154  RH  040%=      5-min Rain = 0
KLBW 201610Z 21008KT 32/16 A3014 RMK A01 T03160155  RH  040%=      5-min Rain = 0
KLBW 201615Z 19009KT 32/15 A3014 RMK A01 T03180153  RH  039%=      5-min Rain = 0
KLBW 201620Z 21007KT 32/15 A3014 RMK A01 T03200154  RH  038%=      5-min Rain = 0
KLBW 201625Z 20008G14KT 32/15 A3013 RMK A01 T03230152  RH  037%=      5-min Rain = 0
KLBW 201630Z 20007G12KT 33/15 A3013 RMK A01 T03280153  RH  037%=      5-min Rain = 0
KLBW 201635Z 23008G13KT 33/15 A3013 RMK A01 T03260150  RH  036%=      5-min Rain = 0
KLBW 201640Z 21009KT 33/15 A3013 RMK A01 T03270149  RH  036%=      5-min Rain = 0
KLBW 201645Z 23007KT 33/15 A3013 RMK A01 T03270150  RH  036%=      5-min Rain = 0
KLBW 201650Z 23007KT 33/15 A3013 RMK A01 T03280147  RH  035%=      5-min Rain = 0
KLBW 201655Z 25007G12KT 33/15 A3013 RMK A01 T03280148  RH  035%=      5-min Rain = 0
KLBW 201700Z 24006KT 33/15 A3013 RMK A01 T03340151  RH  035%=      5-min Rain = 0
KLBW 201705Z 21007KT 34/15 A3013 RMK A01 T03350148  RH  034%=      5-min Rain = 0
KLBW 201710Z 16005G10KT 34/14 A3013 RMK A01 T03350143  RH  033%=      5-min Rain = 0
KLBW 201715Z 19008G15KT 34/15 A3013 RMK A01 T03420146  RH  032%=      5-min Rain = 0
KLBW 201720Z 18007G12KT 34/15 A3013 RMK A01 T03380145  RH  033%=      5-min Rain = 0
KLBW 201725Z 20005KT 34/15 A3013 RMK A01 T03410146  RH  032%=      5-min Rain = 0
KLBW 201730Z 17007G12KT 34/15 A3013 RMK A01 T03400146  RH  033%=      5-min Rain = 0
KLBW 201735Z 16005G12KT 34/14 A3013 RMK A01 T03390144  RH  032%=      5-min Rain = 0
KLBW 201740Z 19009KT 34/14 A3013 RMK A01 T03410142  RH  032%=      5-min Rain = 0
KLBW 201745Z 18007KT 34/14 A3013 RMK A01 T03420143  RH  032%=      5-min Rain = 0
KLBW 201750Z 19005G12KT 34/14 A3013 RMK A01 T03410144  RH  032%=      5-min Rain = 0
KLBW 201755Z 22005G11KT 34/14 A3013 RMK A01 T03410142  RH  032%=      5-min Rain = 0
KLBW 201800Z 20007G13KT 35/14 A3013 RMK A01 T03450144  RH  031%=      5-min Rain = 0
KLBW 201805Z 12004KT 35/14 A3013 RMK A01 T03470142  RH  030%=      5-min Rain = 0
KLBW 201810Z 18006G11KT 35/15 A3013 RMK A01 T03510147  RH  031%=      5-min Rain = 0
KLBW 201815Z 22005KT 35/15 A3013 RMK A01 T03450146  RH  032%=      5-min Rain = 0
KLBW 201820Z 21008KT 35/14 A3013 RMK A01 T03460143  RH  031%=      5-min Rain = 0
KLBW 201825Z 16009KT 36/13 A3013 RMK A01 T03550132  RH  027%=      5-min Rain = 0
KLBW 201830Z 17006KT 35/14 A3012 RMK A01 T03530137  RH  029%=      5-min Rain = 0
KLBW 201835Z 17006G11KT 35/14 A3012 RMK A01 T03470137  RH  030%=      5-min Rain = 0
KLBW 201840Z 17006KT 35/14 A3012 RMK A01 T03510136  RH  029%=      5-min Rain = 0
KLBW 201845Z 16005G11KT 35/14 A3012 RMK A01 T03520137  RH  029%=      5-min Rain = 0
KLBW 201850Z 19006G13KT 35/14 A3012 RMK A01 T03510140  RH  029%=      5-min Rain = 0
KLBW 201855Z 13006G11KT 35/14 A3012 RMK A01 T03530137  RH  029%=      5-min Rain = 0
KLBW 201900Z 13004G9KT 35/13 A3011 RMK A01 T03530134  RH  028%=      5-min Rain = 0
KLBW 201905Z 17007G12KT 36/14 A3011 RMK A01 T03590139  RH  028%=      5-min Rain = 0
KLBW 201910Z 17007KT 36/13 A3011 RMK A01 T03570134  RH  027%=      5-min Rain = 0
KLBW 201915Z 19009KT 36/14 A3011 RMK A01 T03630135  RH  027%=      5-min Rain = 0
KLBW 201920Z 15008KT 37/14 A3011 RMK A01 T03650140  RH  027%=      5-min Rain = 0
KLBW 201925Z 14007G14KT 36/14 A3011 RMK A01 T03610140  RH  028%=      5-min Rain = 0
KLBW 201930Z 12008KT 36/14 A3011 RMK A01 T03620137  RH  027%=      5-min Rain = 0
KLBW 201935Z 12008G15KT 36/14 A3011 RMK A01 T03550138  RH  028%=      5-min Rain = 0
KLBW 201940Z 14008G14KT 37/14 A3011 RMK A01 T03650138  RH  027%=      5-min Rain = 0
KLBW 201945Z 12010KT 36/13 A3011 RMK A01 T03590134  RH  027%=      5-min Rain = 0
KLBW 201950Z 17009KT 36/13 A3011 RMK A01 T03640132  RH  026%=      5-min Rain = 0
KLBW 201955Z 17005G12KT 37/13 A301 RMK A01 T03650131  RH  026%=      5-min Rain = 0
KLBW 202000Z 15009G15KT 36/13 A301 RMK A01 T03640134  RH  026%=      5-min Rain = 0
KLBW 202005Z 14008KT 37/13 A301 RMK A01 T03650133  RH  026%=      5-min Rain = 0
KLBW 202010Z 12007KT 37/13 A301 RMK A01 T03680134  RH  026%=      5-min Rain = 0
KLBW 202015Z 13007G14KT 36/13 A301 RMK A01 T03630133  RH  026%=      5-min Rain = 0
KLBW 202020Z 14007KT 36/13 A301 RMK A01 T03630134  RH  026%=      5-min Rain = 0
KLBW 202025Z 14009G14KT 37/13 A3009 RMK A01 T03660133  RH  026%=      5-min Rain = 0
KLBW 202030Z 11004G11KT 36/13 A3009 RMK A01 T03620129  RH  026%=      5-min Rain = 0
KLBW 202035Z 12007KT 36/13 A3009 RMK A01 T03610127  RH  026%=      5-min Rain = 0
KLBW 202040Z 14005G11KT 36/13 A3009 RMK A01 T03610126  RH  025%=      5-min Rain = 0
KLBW 202045Z 13008G15KT 36/13 A3009 RMK A01 T03640128  RH  025%=      5-min Rain = 0
KLBW 202050Z 14009KT 37/13 A3008 RMK A01 T03670128  RH  025%=      5-min Rain = 0
KLBW 202055Z 14007G13KT 37/13 A3008 RMK A01 T03680126  RH  024%=      5-min Rain = 0
KLBW 202100Z 14004G9KT 37/13 A3008 RMK A01 T03690127  RH  024%=      5-min Rain = 0
KLBW 202105Z 19007G13KT 37/12 A3008 RMK A01 T03680120  RH  024%=      5-min Rain = 0
KLBW 202110Z 16007G12KT 37/12 A3008 RMK A01 T03740119  RH  023%=      5-min Rain = 0
KLBW 202115Z 13008KT 37/13 A3007 RMK A01 T03720129  RH  024%=      5-min Rain = 0
KLBW 202120Z 12009KT 37/13 A3007 RMK A01 T03690129  RH  025%=      5-min Rain = 0
KLBW 202125Z 14010G15KT 37/13 A3007 RMK A01 T03660131  RH  026%=      5-min Rain = 0
KLBW 202130Z 17007G14KT 36/13 A3007 RMK A01 T03550128  RH  027%=      5-min Rain = 0
KLBW 202135Z 15008G13KT 36/13 A3006 RMK A01 T03630130  RH  026%=      5-min Rain = 0
KLBW 202140Z 14008G13KT 37/13 A3006 RMK A01 T03680128  RH  025%=      5-min Rain = 0
KLBW 202145Z 17006KT 37/12 A3006 RMK A01 T03710123  RH  023%=      5-min Rain = 0
KLBW 202150Z 15010KT 37/12 A3006 RMK A01 T03720119  RH  023%=      5-min Rain = 0
KLBW 202155Z 18006G11KT 37/12 A3006 RMK A01 T03710117  RH  023%=      5-min Rain = 0
KLBW 202200Z 15007KT 37/12 A3006 RMK A01 T03710117  RH  023%=      5-min Rain = 0
KLBW 202205Z 13006G11KT 37/12 A3005 RMK A01 T03660117  RH  023%=      5-min Rain = 0
KLBW 202210Z 16006G12KT 36/12 A3005 RMK A01 T03640119  RH  024%=      5-min Rain = 0
KLBW 202215Z 14009G15KT 37/12 A3005 RMK A01 T03700118  RH  023%=      5-min Rain = 0
KLBW 202220Z 14008G14KT 37/11 A3005 RMK A01 T03680111  RH  022%=      5-min Rain = 0
KLBW 202225Z 13007KT 37/11 A3005 RMK A01 T03670114  RH  023%=      5-min Rain = 0
KLBW 202230Z 15010G15KT 37/12 A3005 RMK A01 T03680121  RH  024%=      5-min Rain = 0
KLBW 202235Z 14006KT 37/12 A3005 RMK A01 T03690115  RH  023%=      5-min Rain = 0
KLBW 202240Z 16007G16KT 37/12 A3004 RMK A01 T03690120  RH  023%=      5-min Rain = 0
KLBW 202245Z 15009KT 37/12 A3005 RMK A01 T03660117  RH  023%=      5-min Rain = 0
KLBW 202250Z 13008KT 37/11 A3005 RMK A01 T03650110  RH  022%=      5-min Rain = 0
KLBW 202255Z 12007KT 36/11 A3005 RMK A01 T03570112  RH  024%=      5-min Rain = 0
KLBW 202300Z 11006KT 35/12 A3004 RMK A01 T03540115  RH  024%=      5-min Rain = 0
KLBW 202305Z 14009G14KT 36/12 A3005 RMK A01 T03590116  RH  024%=      5-min Rain = 0
KLBW 202310Z 17006G11KT 36/12 A3004 RMK A01 T03580116  RH  024%=      5-min Rain = 0
KLBW 202315Z 16007KT 36/11 A3004 RMK A01 T03580111  RH  023%=      5-min Rain = 0
KLBW 202320Z 14008G13KT 35/11 A3004 RMK A01 T03500109  RH  024%=      5-min Rain = 0
KLBW 202325Z 14008KT 35/11 A3004 RMK A01 T03470109  RH  024%=      5-min Rain = 0
KLBW 202330Z 15008KT 35/11 A3004 RMK A01 T03470110  RH  025%=      5-min Rain = 0
KLBW 202335Z 16008G13KT 35/11 A3004 RMK A01 T03510110  RH  024%=      5-min Rain = 0
KLBW 202340Z 16007G13KT 35/11 A3004 RMK A01 T03500110  RH  024%=      5-min Rain = 0
KLBW 202345Z 17007KT 35/11 A3004 RMK A01 T03470112  RH  025%=      5-min Rain = 0
KLBW 202350Z 15008G13KT 35/11 A3004 RMK A01 T03530112  RH  024%=      5-min Rain = 0
KLBW 202355Z 13008KT 35/11 A3004 RMK A01 T03530106  RH  023%=      5-min Rain = 0
KLBW 210000Z 15007G12KT 35/11 A3004 RMK A01 T03470106  RH  024%=      5-min Rain = 0
KLBW 210005Z 15008KT 35/10 A3004 RMK A01 T03450102  RH  023%=      5-min Rain = 0
KLBW 210010Z 16009KT 34/10 A3004 RMK A01 T03440101  RH  024%=      5-min Rain = 0
KLBW 210015Z 16007KT 34/10 A3004 RMK A01 T03410104  RH  024%=      5-min Rain = 0
KLBW 210020Z 17008KT 34/10 A3004 RMK A01 T03400104  RH  024%=      5-min Rain = 0
KLBW 210025Z 16006KT 34/11 A3004 RMK A01 T03380105  RH  025%=      5-min Rain = 0
KLBW 210030Z 15006KT 34/11 A3004 RMK A01 T03370106  RH  025%=      5-min Rain = 0
KLBW 210035Z 15008G13KT 34/10 A3005 RMK A01 T03370102  RH  025%=      5-min Rain = 0
KLBW 210040Z 15007KT 34/10 A3005 RMK A01 T03370099  RH  024%=      5-min Rain = 0
KLBW 210045Z 15008KT 34/10 A3005 RMK A01 T03360098  RH  024%=      5-min Rain = 0
KLBW 210050Z 15010KT 34/10 A3005 RMK A01 T03360098  RH  024%=      5-min Rain = 0
KLBW 210055Z 15009KT 34/10 A3005 RMK A01 T03350099  RH  024%=      5-min Rain = 0
KLBW 210100Z 15008KT 34/10 A3005 RMK A01 T03350097  RH  024%=      5-min Rain = 0
KLBW 210105Z 15008KT 33/10 A3005 RMK A01 T03330096  RH  024%=      5-min Rain = 0
KLBW 210110Z 15008KT 33/10 A3006 RMK A01 T03320095  RH  024%=      5-min Rain = 0
KLBW 210115Z 15007KT 33/10 A3006 RMK A01 T03320095  RH  024%=      5-min Rain = 0
KLBW 210120Z 15007KT 33/10 A3006 RMK A01 T03300096  RH  024%=      5-min Rain = 0
KLBW 210125Z 15007KT 33/10 A3006 RMK A01 T03280096  RH  025%=      5-min Rain = 0
KLBW 210130Z 14007KT 33/10 A3006 RMK A01 T03260098  RH  025%=      5-min Rain = 0
KLBW 210135Z 15009KT 33/10 A3006 RMK A01 T03250099  RH  026%=      5-min Rain = 0
KLBW 210140Z 15007KT 33/10 A3006 RMK A01 T03250099  RH  026%=      5-min Rain = 0
KLBW 210145Z 14007KT 32/10 A3006 RMK A01 T03220101  RH  027%=      5-min Rain = 0
KLBW 210150Z 14007KT 32/10 A3007 RMK A01 T03200102  RH  027%=      5-min Rain = 0
KLBW 210155Z 15007G12KT 32/10 A3007 RMK A01 T03190103  RH  027%=      5-min Rain = 0
KLBW 210200Z 15010KT 32/10 A3007 RMK A01 T03200101  RH  027%=      5-min Rain = 0
KLBW 210205Z 15007KT 32/10 A3007 RMK A01 T03180101  RH  027%=      5-min Rain = 0
KLBW 210210Z 15007KT 32/10 A3007 RMK A01 T03150102  RH  028%=      5-min Rain = 0
KLBW 210215Z 15007KT 31/10 A3007 RMK A01 T03140101  RH  028%=      5-min Rain = 0
KLBW 210220Z 15008KT 31/10 A3007 RMK A01 T03130101  RH  028%=      5-min Rain = 0
KLBW 210225Z 14007KT 31/10 A3008 RMK A01 T03140102  RH  028%=      5-min Rain = 0
KLBW 210230Z 14008KT 31/10 A3008 RMK A01 T03120104  RH  029%=      5-min Rain = 0
KLBW 210235Z 14008KT 31/11 A3008 RMK A01 T03110105  RH  029%=      5-min Rain = 0
KLBW 210240Z 15008KT 31/10 A3008 RMK A01 T03100104  RH  029%=      5-min Rain = 0
KLBW 210245Z 14008KT 31/11 A3008 RMK A01 T03080106  RH  030%=      5-min Rain = 0
KLBW 210250Z 14008KT 31/11 A3008 RMK A01 T03060109  RH  031%=      5-min Rain = 0
KLBW 210255Z 14008G14KT 31/11 A3009 RMK A01 T03060109  RH  031%=      5-min Rain = 0
KLBW 210300Z 15009G14KT 31/11 A3009 RMK A01 T03070108  RH  030%=      5-min Rain = 0
KLBW 210305Z 15009G14KT 31/11 A3009 RMK A01 T03060109  RH  031%=      5-min Rain = 0
KLBW 210310Z 15007KT 31/11 A3009 RMK A01 T03060110  RH  031%=      5-min Rain = 0
KLBW 210315Z 15007KT 30/11 A3009 RMK A01 T03040111  RH  032%=      5-min Rain = 0
KLBW 210320Z 15008KT 30/11 A3009 RMK A01 T03030112  RH  032%=      5-min Rain = 0
KLBW 210325Z 14009G14KT 30/11 A3009 RMK A01 T03030113  RH  032%=      5-min Rain = 0
KLBW 210330Z 15008KT 30/11 A3009 RMK A01 T03030114  RH  032%=      5-min Rain = 0
KLBW 210335Z 16008KT 30/11 A3009 RMK A01 T03020114  RH  033%=      5-min Rain = 0
KLBW 210340Z 15010KT 30/12 A3009 RMK A01 T03020115  RH  033%=      5-min Rain = 0
KLBW 210345Z 15009G14KT 30/12 A3009 RMK A01 T03000115  RH  033%=      5-min Rain = 0
KLBW 210350Z 14009G14KT 30/12 A3009 RMK A01 T03000116  RH  034%=      5-min Rain = 0
KLBW 210355Z 14009KT 30/12 A3009 RMK A01 T02970118  RH  034%=      5-min Rain = 0
KLBW 210400Z 15008KT 30/12 A3009 RMK A01 T02960119  RH  035%=      5-min Rain = 0
KLBW 210405Z 14009G15KT 30/12 A3009 RMK A01 T02950119  RH  035%=      5-min Rain = 0
KLBW 210410Z 14009KT 30/12 A3009 RMK A01 T02950120  RH  035%=      5-min Rain = 0
KLBW 210415Z 14008G13KT 29/12 A3009 RMK A01 T02930121  RH  036%=      5-min Rain = 0
KLBW 210420Z 15009G16KT 29/12 A3009 RMK A01 T02930120  RH  036%=      5-min Rain = 0
KLBW 210425Z 15010KT 29/12 A3009 RMK A01 T02930120  RH  036%=      5-min Rain = 0
KLBW 210430Z 15009G14KT 29/12 A3009 RMK A01 T02930120  RH  036%=      5-min Rain = 0
KLBW 210435Z 15009KT 29/12 A301 RMK A01 T02920120  RH  036%=      5-min Rain = 0
KLBW 210440Z 15009G14KT 29/12 A301 RMK A01 T02910121  RH  036%=      5-min Rain = 0
KLBW 210445Z 15008KT 29/12 A301 RMK A01 T02910121  RH  037%=      5-min Rain = 0
KLBW 210450Z 15008KT 29/12 A301 RMK A01 T02880123  RH  037%=      5-min Rain = 0
KLBW 210455Z 15008KT 29/12 A3009 RMK A01 T02870123  RH  038%=      5-min Rain = 0

Page generated in 0.0094 seconds.